Waterville, Ireland
Current Conditions -  °F | °C
As of 8:00 PM on Tuesday 21 Oct 2014 (Local Time) from EIKY Reporting Station
Broken Clouds Broken Clouds  
Wind Chill: 52°   Ceiling: 4700
Heat Index: 52°   Visibility: 6mi
Dew Point: 43°   Wind: 7mph
Humidity: 71%   Direction: 290°WNW
Pressure: 30.3"   Gusts: NA
Location:  51.83°N, 10.17°W
Report Text: EIKY 212000Z 29006KT 250V320 9999 SCT037 BKN047 11/06 Q1026
Loading
Personal Weather Stations






























Interactive Weather Map
Tropical Storm Tracking
New forecast layout! Learn more

10-Day Weather Forecast

Advertisements
Track Severe Weather on mobile